Time;durP1;ratioP1;P1;durP2;ratioP2;P2;SDS_P1;SDS_P2;PMS_P1;PMS_P2;Temp;Humidity;BMP_temperature;BMP_pressure;BME280_temperature;BME280_humidity;BME280_pressure;Samples;Min_cycle;Max_cycle;Signal;HPM_P1;HPM_P2
2024/02/09 00:00:54;;;;;;;36.50;34.40;;;;;;;;;;5068549;28;20029;-63
2024/02/09 00:03:26;;;;;;;34.92;33.03;;;;;;;;;;5068222;28;20109;-63
2024/02/09 00:05:52;;;;;;;33.63;31.65;;;;;;;;;;5064506;28;20466;-63
2024/02/09 00:08:21;;;;;;;36.40;33.95;;;;;;;;;;5064706;28;20040;-62
2024/02/09 00:10:47;;;;;;;36.70;34.45;;;;;;;;;;5066339;28;20036;-62
2024/02/09 00:13:14;;;;;;;38.97;35.72;;;;;;;;;;5071298;28;20524;-63
2024/02/09 00:15:47;;;;;;;34.65;32.58;;;;;;;;;;5069069;28;20028;-62
2024/02/09 00:18:17;;;;;;;36.60;34.50;;;;;;;;;;5065699;28;20051;-62
2024/02/09 00:20:43;;;;;;;34.83;32.85;;;;;;;;;;5065858;28;20025;-62
2024/02/09 00:23:09;;;;;;;38.40;36.05;;;;;;;;;;5069772;28;20033;-61
2024/02/09 00:25:34;;;;;;;35.50;33.65;;;;;;;;;;5072588;28;20036;-62
2024/02/09 00:27:59;;;;;;;35.22;33.25;;;;;;;;;;5069332;28;20016;-62
2024/02/09 00:30:25;;;;;;;35.88;33.72;;;;;;;;;;5069946;28;20035;-62
2024/02/09 00:32:51;;;;;;;33.70;31.77;;;;;;;;;;5066295;28;20038;-62
2024/02/09 00:35:17;;;;;;;36.45;34.25;;;;;;;;;;5065656;28;20040;-61
2024/02/09 00:37:43;;;;;;;35.50;33.42;;;;;;;;;;5051180;28;20464;-62
2024/02/09 00:40:09;;;;;;;36.75;34.70;;;;;;;;;;5066800;28;20027;-63
2024/02/09 00:42:35;;;;;;;36.25;34.20;;;;;;;;;;5067005;28;20032;-61
2024/02/09 00:45:03;;;;;;;38.05;34.85;;;;;;;;;;5064956;28;20093;-62
2024/02/09 00:47:30;;;;;;;38.05;35.90;;;;;;;;;;5064376;28;20066;-63
2024/02/09 00:49:57;;;;;;;36.03;33.83;;;;;;;;;;5067486;28;20052;-63
2024/02/09 00:52:23;;;;;;;38.33;36.33;;;;;;;;;;5068124;28;20038;-63
2024/02/09 00:54:49;;;;;;;41.38;37.00;;;;;;;;;;5065095;28;20124;-63
2024/02/09 00:57:15;;;;;;;41.70;39.25;;;;;;;;;;5067983;28;20123;-62
2024/02/09 00:59:40;;;;;;;40.08;37.90;;;;;;;;;;5065856;28;20043;-62
2024/02/09 01:02:06;;;;;;;38.55;36.55;;;;;;;;;;5065696;28;20036;-62
2024/02/09 01:04:36;;;;;;;39.88;37.63;;;;;;;;;;5068259;28;20028;-62
2024/02/09 01:07:05;;;;;;;42.17;39.75;;;;;;;;;;5067349;28;20028;-63
2024/02/09 01:09:34;;;;;;;41.70;39.20;;;;;;;;;;5066931;28;20025;-62
2024/02/09 02:46:58;;;;;;;37.40;35.50;;;;;;;;;;5066805;28;20027;-61
2024/02/09 03:05:47;;;;;;;34.28;32.50;;;;;;;;;;5070924;28;20032;-62
2024/02/09 03:08:13;;;;;;;34.78;32.97;;;;;;;;;;5068311;28;20101;-62
2024/02/09 03:10:38;;;;;;;34.60;32.80;;;;;;;;;;5068805;28;20029;-62
2024/02/09 03:13:07;;;;;;;36.38;34.40;;;;;;;;;;5067924;28;20046;-62
2024/02/09 03:15:32;;;;;;;36.55;34.65;;;;;;;;;;5067771;28;20036;-62
2024/02/09 03:17:58;;;;;;;37.33;35.40;;;;;;;;;;5069841;28;20090;-62
2024/02/09 03:20:24;;;;;;;39.40;37.40;;;;;;;;;;5064035;28;20036;-62
2024/02/09 03:22:50;;;;;;;38.78;36.78;;;;;;;;;;5069825;28;20094;-63
2024/02/09 03:25:18;;;;;;;38.53;36.50;;;;;;;;;;5070488;28;20029;-62
2024/02/09 03:27:44;;;;;;;36.80;34.90;;;;;;;;;;5068187;28;20039;-62
2024/02/09 03:30:09;;;;;;;36.88;34.97;;;;;;;;;;5066223;28;20035;-62
2024/02/09 03:32:36;;;;;;;41.53;39.42;;;;;;;;;;5065753;28;20082;-62
2024/02/09 03:35:04;;;;;;;37.40;35.33;;;;;;;;;;5069210;28;20025;-63
2024/02/09 03:37:33;;;;;;;36.17;34.28;;;;;;;;;;5064462;28;20043;-61
2024/02/09 03:40:00;;;;;;;35.53;33.72;;;;;;;;;;5070056;28;20093;-62
2024/02/09 03:42:25;;;;;;;38.83;35.92;;;;;;;;;;5068866;28;20122;-63
2024/02/09 03:44:54;;;;;;;39.85;37.63;;;;;;;;;;5066437;28;20569;-62
2024/02/09 03:47:22;;;;;;;40.70;38.40;;;;;;;;;;5066005;28;20055;-63
2024/02/09 03:49:49;;;;;;;39.15;36.97;;;;;;;;;;5065330;28;20709;-63
2024/02/09 03:52:15;;;;;;;37.95;35.90;;;;;;;;;;5066294;28;20032;-62
2024/02/09 03:54:41;;;;;;;38.95;36.75;;;;;;;;;;5081394;28;20454;-62
2024/02/09 03:57:07;;;;;;;37.85;35.85;;;;;;;;;;5065779;28;20036;-63
2024/02/09 03:59:32;;;;;;;38.47;36.38;;;;;;;;;;5065678;28;20039;-62
2024/02/09 04:01:59;;;;;;;38.88;36.80;;;;;;;;;;5068718;28;20044;-61
2024/02/09 04:04:26;;;;;;;38.15;36.15;;;;;;;;;;5065032;28;20037;-63
2024/02/09 04:06:52;;;;;;;40.70;38.60;;;;;;;;;;5062194;28;20052;-61
2024/02/09 04:09:17;;;;;;;39.90;37.80;;;;;;;;;;5066865;28;20043;-62
2024/02/09 04:11:42;;;;;;;40.22;38.13;;;;;;;;;;5065604;28;20044;-62
2024/02/09 04:14:08;;;;;;;41.08;38.88;;;;;;;;;;5067378;28;20036;-62
2024/02/09 04:16:33;;;;;;;40.53;38.42;;;;;;;;;;5068137;28;20028;-63
2024/02/09 04:18:58;;;;;;;42.45;40.25;;;;;;;;;;5065312;28;20032;-63
2024/02/09 04:21:24;;;;;;;43.30;40.88;;;;;;;;;;5067899;28;20036;-63
2024/02/09 04:23:51;;;;;;;42.10;39.97;;;;;;;;;;5063523;28;20059;-62
2024/02/09 04:26:16;;;;;;;45.47;43.10;;;;;;;;;;5066441;28;20046;-63
2024/02/09 04:28:42;;;;;;;45.78;43.47;;;;;;;;;;5066932;28;20044;-63
2024/02/09 04:31:07;;;;;;;43.58;41.38;;;;;;;;;;5066409;28;20063;-63
2024/02/09 04:33:33;;;;;;;42.63;40.42;;;;;;;;;;5070961;28;20027;-63
2024/02/09 04:36:00;;;;;;;44.45;42.15;;;;;;;;;;5068685;28;20043;-63
2024/02/09 04:38:26;;;;;;;48.33;45.83;;;;;;;;;;5067113;28;20043;-63
2024/02/09 04:40:51;;;;;;;67.57;64.03;;;;;;;;;;5067398;28;20032;-63
2024/02/09 04:43:16;;;;;;;68.63;65.05;;;;;;;;;;5069030;28;20450;-63
2024/02/09 04:45:42;;;;;;;68.25;64.82;;;;;;;;;;5064463;28;20051;-63
2024/02/09 04:48:08;;;;;;;70.95;67.40;;;;;;;;;;5068900;28;20028;-63
2024/02/09 04:50:33;;;;;;;64.45;61.17;;;;;;;;;;5067777;28;20033;-63
2024/02/09 04:52:59;;;;;;;65.85;62.58;;;;;;;;;;5069552;28;20035;-63
2024/02/09 04:55:24;;;;;;;66.22;62.92;;;;;;;;;;5063783;28;20413;-62
2024/02/09 04:57:50;;;;;;;68.75;65.30;;;;;;;;;;5066683;28;20103;-61
2024/02/09 05:00:15;;;;;;;67.40;64.00;;;;;;;;;;5065801;28;20058;-62
2024/02/09 05:02:44;;;;;;;66.50;63.15;;;;;;;;;;5066313;28;20365;-61
2024/02/09 05:05:10;;;;;;;64.35;61.10;;;;;;;;;;5062373;28;20029;-61
2024/02/09 05:07:35;;;;;;;59.15;56.15;;;;;;;;;;5067014;28;20032;-62
2024/02/09 05:10:01;;;;;;;57.05;54.15;;;;;;;;;;5077899;28;20040;-62
2024/02/09 05:12:31;;;;;;;57.38;54.47;;;;;;;;;;5061621;28;20040;-62
2024/02/09 05:14:57;;;;;;;52.10;49.30;;;;;;;;;;5065283;28;20427;-62
2024/02/09 05:17:23;;;;;;;59.05;56.05;;;;;;;;;;5064560;28;20282;-63
2024/02/09 05:19:50;;;;;;;58.35;55.38;;;;;;;;;;5067074;28;20747;-63
2024/02/09 05:22:16;;;;;;;58.25;55.33;;;;;;;;;;5064969;28;20040;-63
2024/02/09 05:24:41;;;;;;;58.85;55.65;;;;;;;;;;5064672;28;20029;-63
2024/02/09 05:27:07;;;;;;;58.47;55.30;;;;;;;;;;5068387;28;20032;-63
2024/02/09 05:29:32;;;;;;;61.53;58.38;;;;;;;;;;5067124;28;20063;-63
2024/02/09 05:31:58;;;;;;;72.28;68.40;;;;;;;;;;5064362;28;20544;-63
2024/02/09 05:34:24;;;;;;;67.28;63.92;;;;;;;;;;5058521;28;20472;-63
2024/02/09 05:36:53;;;;;;;69.80;65.97;;;;;;;;;;5065344;28;20667;-63
2024/02/09 05:39:18;;;;;;;74.78;70.28;;;;;;;;;;5063597;28;20064;-63
2024/02/09 05:41:44;;;;;;;78.10;74.20;;;;;;;;;;5063804;28;20087;-63
2024/02/09 05:44:09;;;;;;;83.10;78.85;;;;;;;;;;5069285;28;20443;-63
2024/02/09 05:46:35;;;;;;;89.13;84.72;;;;;;;;;;5066114;28;20051;-62
2024/02/09 05:49:00;;;;;;;97.55;92.65;;;;;;;;;;5064264;28;20028;-63
2024/02/09 05:51:25;;;;;;;95.40;90.68;;;;;;;;;;5065073;28;20289;-62
2024/02/09 05:53:51;;;;;;;87.43;83.05;;;;;;;;;;5066997;28;20040;-63
2024/02/09 05:56:21;;;;;;;96.75;91.97;;;;;;;;;;5067860;28;20365;-62
2024/02/09 05:58:54;;;;;;;97.00;92.20;;;;;;;;;;5068251;28;20040;-62
2024/02/09 06:01:20;;;;;;;101.50;96.32;;;;;;;;;;5070302;28;20136;-63
2024/02/09 06:03:46;;;;;;;96.68;91.82;;;;;;;;;;5072667;28;20125;-63
2024/02/09 06:06:13;;;;;;;94.60;89.90;;;;;;;;;;5071151;28;20103;-63
2024/02/09 06:08:39;;;;;;;95.00;90.28;;;;;;;;;;5069029;28;20024;-62
2024/02/09 06:11:05;;;;;;;104.65;99.40;;;;;;;;;;5074027;28;20559;-61
2024/02/09 06:13:31;;;;;;;96.18;91.38;;;;;;;;;;5071192;28;20116;-61
2024/02/09 06:16:00;;;;;;;104.88;99.68;;;;;;;;;;5070493;28;20701;-62
2024/02/09 06:18:27;;;;;;;98.43;93.50;;;;;;;;;;5070100;28;20032;-63
2024/02/09 06:20:53;;;;;;;92.18;87.50;;;;;;;;;;5070060;28;20033;-63
2024/02/09 06:23:21;;;;;;;93.03;88.45;;;;;;;;;;5067017;28;20029;-63
2024/02/09 06:25:49;;;;;;;90.95;86.45;;;;;;;;;;5066284;28;20047;-63
2024/02/09 06:28:14;;;;;;;86.80;82.43;;;;;;;;;;5073250;28;20032;-63
2024/02/09 06:30:39;;;;;;;91.80;87.18;;;;;;;;;;5066665;28;20532;-63
2024/02/09 06:33:05;;;;;;;90.13;85.53;;;;;;;;;;5071529;28;20071;-63
2024/02/09 06:35:33;;;;;;;88.25;83.80;;;;;;;;;;5067399;28;20047;-64
2024/02/09 06:37:58;;;;;;;89.68;85.15;;;;;;;;;;5066444;28;20032;-63
2024/02/09 06:40:24;;;;;;;82.25;77.95;;;;;;;;;;5065876;28;20039;-64
2024/02/09 06:42:49;;;;;;;81.85;77.75;;;;;;;;;;5065921;28;20032;-63
2024/02/09 06:45:16;;;;;;;81.43;77.32;;;;;;;;;;5066784;28;20116;-64
2024/02/09 06:47:42;;;;;;;82.65;78.50;;;;;;;;;;5065772;28;20125;-64
2024/02/09 06:50:10;;;;;;;81.53;77.40;;;;;;;;;;5067538;28;20048;-64
2024/02/09 06:52:37;;;;;;;79.88;75.90;;;;;;;;;;5067728;28;20668;-64
2024/02/09 06:55:08;;;;;;;75.28;71.45;;;;;;;;;;5060436;28;20199;-64
2024/02/09 06:57:34;;;;;;;;;;;;;;;;;;5058875;28;20024;-64
2024/02/09 06:59:59;;;;;;;71.20;67.30;;;;;;;;;;5063617;28;19920;-64
2024/02/09 07:02:24;;;;;;;73.93;70.22;;;;;;;;;;5073292;28;20029;-64
2024/02/09 07:05:00;;;;;;;75.30;71.50;;;;;;;;;;5067174;28;20042;-64
2024/02/09 07:07:28;;;;;;;69.85;66.32;;;;;;;;;;5064259;28;20378;-63
2024/02/09 07:09:54;;;;;;;72.88;69.22;;;;;;;;;;5067111;28;20401;-64
2024/02/09 07:12:20;;;;;;;79.65;75.57;;;;;;;;;;5061823;28;20103;-64
2024/02/09 07:14:46;;;;;;;73.07;69.38;;;;;;;;;;5065127;28;20063;-64
2024/02/09 07:17:11;;;;;;;69.45;65.72;;;;;;;;;;5063401;28;20043;-64
2024/02/09 07:19:36;;;;;;;67.88;64.40;;;;;;;;;;5068413;28;20028;-64
2024/02/09 07:22:02;;;;;;;76.22;72.13;;;;;;;;;;5069362;28;20048;-64
2024/02/09 07:24:27;;;;;;;74.18;70.47;;;;;;;;;;5066288;28;20540;-64
2024/02/09 07:26:52;;;;;;;79.43;75.43;;;;;;;;;;5067241;28;20103;-64
2024/02/09 07:29:18;;;;;;;75.00;71.00;;;;;;;;;;5067918;28;20032;-64
2024/02/09 07:31:43;;;;;;;68.65;65.15;;;;;;;;;;5065700;28;20043;-63
2024/02/09 07:34:12;;;;;;;69.15;65.63;;;;;;;;;;5064133;28;20032;-64
2024/02/09 07:36:38;;;;;;;71.78;68.05;;;;;;;;;;5067313;28;20185;-64
2024/02/09 07:39:04;;;;;;;73.50;69.50;;;;;;;;;;5064796;28;20040;-64
2024/02/09 07:41:30;;;;;;;70.75;67.15;;;;;;;;;;5056222;28;20634;-64
2024/02/09 07:43:55;;;;;;;68.55;65.07;;;;;;;;;;5064917;28;20123;-64
2024/02/09 07:46:21;;;;;;;72.10;68.43;;;;;;;;;;5070624;28;20028;-64
2024/02/09 07:48:46;;;;;;;70.88;67.22;;;;;;;;;;5066915;28;20025;-64
2024/02/09 07:51:11;;;;;;;72.95;69.07;;;;;;;;;;5064472;28;20123;-64
2024/02/09 07:53:40;;;;;;;69.53;66.03;;;;;;;;;;5065565;28;20165;-63
2024/02/09 07:56:06;;;;;;;69.95;66.35;;;;;;;;;;5056199;28;20032;-62
2024/02/09 07:58:32;;;;;;;70.30;66.60;;;;;;;;;;5065128;28;20561;-62
2024/02/09 08:00:57;;;;;;;67.43;63.97;;;;;;;;;;5069108;28;20041;-62
2024/02/09 08:03:23;;;;;;;70.70;67.10;;;;;;;;;;5068466;28;20481;-62
2024/02/09 08:05:48;;;;;;;68.65;65.15;;;;;;;;;;5069744;28;22041;-62
2024/02/09 08:08:14;;;;;;;68.82;65.32;;;;;;;;;;5069840;28;20092;-62
2024/02/09 08:10:40;;;;;;;70.72;67.13;;;;;;;;;;5069379;28;20045;-61
2024/02/09 08:13:06;;;;;;;65.95;62.65;;;;;;;;;;5056759;28;20036;-62
2024/02/09 08:15:32;;;;;;;68.90;65.43;;;;;;;;;;5066636;28;20106;-61
2024/02/09 08:17:57;;;;;;;62.30;59.10;;;;;;;;;;5062952;28;20414;-61
2024/02/09 08:20:23;;;;;;;66.47;63.13;;;;;;;;;;5064867;28;20032;-61
2024/02/09 08:22:49;;;;;;;62.55;59.35;;;;;;;;;;5062170;28;20434;-62
2024/02/09 08:25:15;;;;;;;65.13;61.83;;;;;;;;;;5061810;28;20147;-62
2024/02/09 08:27:41;;;;;;;66.13;62.72;;;;;;;;;;5064692;28;20037;-61
2024/02/09 08:30:10;;;;;;;64.60;61.28;;;;;;;;;;5064902;28;20043;-61
2024/02/09 08:32:37;;;;;;;70.13;66.57;;;;;;;;;;5056081;28;20056;-61
2024/02/09 08:35:03;;;;;;;67.20;63.80;;;;;;;;;;5064696;28;20040;-61
2024/02/09 08:37:29;;;;;;;66.10;62.70;;;;;;;;;;5062346;28;20033;-60
2024/02/09 08:39:55;;;;;;;71.65;67.80;;;;;;;;;;5066999;28;20030;-61
2024/02/09 08:42:21;;;;;;;69.95;66.45;;;;;;;;;;5065427;28;20047;-61
2024/02/09 08:44:46;;;;;;;66.57;63.20;;;;;;;;;;5058641;28;20401;-60
2024/02/09 08:47:12;;;;;;;74.63;70.80;;;;;;;;;;5060161;28;20033;-61
2024/02/09 08:49:38;;;;;;;69.25;65.78;;;;;;;;;;5079684;28;20071;-61
2024/02/09 08:52:05;;;;;;;71.00;67.32;;;;;;;;;;5068661;28;20060;-62
2024/02/09 08:54:31;;;;;;;73.90;69.70;;;;;;;;;;5064343;28;20071;-61
2024/02/09 08:56:57;;;;;;;67.93;64.00;;;;;;;;;;5060401;28;20126;-61
2024/02/09 08:59:23;;;;;;;65.85;62.53;;;;;;;;;;5064517;28;20405;-62
2024/02/09 09:01:48;;;;;;;65.93;61.55;;;;;;;;;;5065189;28;20628;-62
2024/02/09 09:04:13;;;;;;;64.13;60.90;;;;;;;;;;5065139;28;20028;-62
2024/02/09 09:06:40;;;;;;;64.75;61.05;;;;;;;;;;5061921;28;20098;-62
2024/02/09 09:09:05;;;;;;;56.80;53.92;;;;;;;;;;5065324;28;20169;-62
2024/02/09 09:11:31;;;;;;;51.40;48.80;;;;;;;;;;5053688;28;20142;-61
2024/02/09 09:13:56;;;;;;;51.42;48.78;;;;;;;;;;5066662;28;20044;-62
2024/02/09 09:16:22;;;;;;;47.58;45.08;;;;;;;;;;5065858;28;20080;-61
2024/02/09 09:18:49;;;;;;;51.78;49.13;;;;;;;;;;5064130;28;20118;-61
2024/02/09 09:21:15;;;;;;;51.15;48.55;;;;;;;;;;5063320;28;20044;-62
2024/02/09 09:23:40;;;;;;;49.88;47.28;;;;;;;;;;5060342;28;20490;-61
2024/02/09 09:26:06;;;;;;;49.97;47.20;;;;;;;;;;5060652;28;20051;-61
2024/02/09 09:28:33;;;;;;;46.45;43.85;;;;;;;;;;5060158;28;20033;-62
2024/02/09 09:30:59;;;;;;;46.40;44.00;;;;;;;;;;5064103;28;20154;-61
2024/02/09 09:33:24;;;;;;;45.35;43.05;;;;;;;;;;5062292;28;20104;-62
2024/02/09 09:35:49;;;;;;;48.05;45.63;;;;;;;;;;5062724;28;20632;-62
2024/02/09 09:38:15;;;;;;;50.80;48.20;;;;;;;;;;5061621;28;20481;-61
2024/02/09 09:40:43;;;;;;;45.38;42.97;;;;;;;;;;5063003;28;20459;-61
2024/02/09 09:43:09;;;;;;;49.10;46.10;;;;;;;;;;5060676;28;20528;-61
2024/02/09 09:45:35;;;;;;;46.97;44.58;;;;;;;;;;5050522;28;20036;-62
2024/02/09 09:48:04;;;;;;;47.30;44.60;;;;;;;;;;5065060;28;20055;-61
2024/02/09 09:50:31;;;;;;;48.80;46.10;;;;;;;;;;5065594;28;20129;-61
2024/02/09 09:53:01;;;;;;;49.95;47.38;;;;;;;;;;5060070;28;20907;-61
2024/02/09 09:55:28;;;;;;;45.08;42.67;;;;;;;;;;5063611;28;20047;-61
2024/02/09 09:57:53;;;;;;;48.33;45.83;;;;;;;;;;5064344;28;20377;-60
2024/02/09 10:00:19;;;;;;;46.33;43.92;;;;;;;;;;5058396;28;20040;-61
2024/02/09 10:02:45;;;;;;;46.42;43.95;;;;;;;;;;5054960;28;20044;-61
2024/02/09 10:05:11;;;;;;;46.30;43.65;;;;;;;;;;5062613;28;20366;-61
2024/02/09 10:07:40;;;;;;;43.30;40.65;;;;;;;;;;5065173;28;20127;-63
2024/02/09 10:10:09;;;;;;;50.17;47.47;;;;;;;;;;5060999;28;20033;-61
2024/02/09 10:12:34;;;;;;;42.08;39.88;;;;;;;;;;5064412;28;20035;-61
2024/02/09 10:15:00;;;;;;;47.72;45.22;;;;;;;;;;5064831;28;20039;-61
2024/02/09 10:17:28;;;;;;;53.92;50.78;;;;;;;;;;5061311;28;20993;-60
2024/02/09 10:19:56;;;;;;;50.03;47.42;;;;;;;;;;5038856;28;20056;-61
2024/02/09 10:22:22;;;;;;;44.13;41.88;;;;;;;;;;5068330;28;20032;-61
2024/02/09 10:24:48;;;;;;;44.53;42.22;;;;;;;;;;5059927;28;20522;-61
2024/02/09 10:27:13;;;;;;;43.80;41.60;;;;;;;;;;5064713;28;20112;-61
2024/02/09 10:29:39;;;;;;;43.88;41.58;;;;;;;;;;5060390;28;20029;-60
2024/02/09 10:32:07;;;;;;;38.00;36.05;;;;;;;;;;5062552;28;20538;-61
2024/02/09 10:34:33;;;;;;;38.40;36.35;;;;;;;;;;5059443;28;20047;-61
2024/02/09 10:36:58;;;;;;;39.67;37.60;;;;;;;;;;5047476;28;20552;-61
2024/02/09 10:39:24;;;;;;;42.90;40.70;;;;;;;;;;5062692;28;20036;-61
2024/02/09 10:41:52;;;;;;;42.03;39.83;;;;;;;;;;5065449;28;20032;-61
2024/02/09 10:44:18;;;;;;;39.60;36.90;;;;;;;;;;5064507;28;20032;-61
2024/02/09 10:46:46;;;;;;;39.70;37.60;;;;;;;;;;5063570;28;20055;-61
2024/02/09 10:49:13;;;;;;;39.05;37.03;;;;;;;;;;5054967;28;20060;-61
2024/02/09 10:51:40;;;;;;;37.17;34.95;;;;;;;;;;5066250;28;20120;-60
2024/02/09 10:54:25;;;;;;;38.15;36.15;;;;;;;;;;5067642;28;23487;-61
2024/02/09 10:56:52;;;;;;;42.80;40.15;;;;;;;;;;5063644;28;20671;-61
2024/02/09 10:59:19;;;;;;;39.85;37.78;;;;;;;;;;5059684;28;20443;-62
2024/02/09 11:01:45;;;;;;;32.65;30.95;;;;;;;;;;5062597;28;20063;-63
2024/02/09 11:04:11;;;;;;;34.60;32.80;;;;;;;;;;5063640;28;20094;-62
2024/02/09 11:06:37;;;;;;;38.13;35.85;;;;;;;;;;5067763;28;20039;-61
2024/02/09 11:09:03;;;;;;;35.17;33.13;;;;;;;;;;5067182;28;20058;-61
2024/02/09 11:11:32;;;;;;;35.60;33.50;;;;;;;;;;5067646;28;20020;-62
2024/02/09 11:14:08;;;;;;;35.63;33.75;;;;;;;;;;5064073;28;20142;-62
2024/02/09 11:16:42;;;;;;;41.42;39.22;;;;;;;;;;5057518;28;20040;-62
2024/02/09 11:19:15;;;;;;;44.35;42.08;;;;;;;;;;5064938;28;20032;-62
2024/02/09 11:21:57;;;;;;;47.80;45.40;;;;;;;;;;5064618;28;20680;-62
2024/02/09 11:24:25;;;;;;;44.58;42.15;;;;;;;;;;5062716;28;20036;-62
2024/02/09 11:26:51;;;;;;;46.35;43.72;;;;;;;;;;5059725;28;20045;-62
2024/02/09 11:29:17;;;;;;;48.00;45.50;;;;;;;;;;5070591;28;20036;-62
2024/02/09 11:31:48;;;;;;;49.05;46.55;;;;;;;;;;5065022;28;20029;-62
2024/02/09 11:34:16;;;;;;;49.40;46.25;;;;;;;;;;5060684;28;20048;-62
2024/02/09 11:36:43;;;;;;;45.65;43.30;;;;;;;;;;5061168;28;20051;-62
2024/02/09 11:39:10;;;;;;;47.28;44.88;;;;;;;;;;5069254;28;20044;-62
2024/02/09 11:41:36;;;;;;;42.75;40.25;;;;;;;;;;5072601;28;20710;-62
2024/02/09 11:44:01;;;;;;;50.20;47.53;;;;;;;;;;5062615;28;20484;-62
2024/02/09 11:46:27;;;;;;;45.70;42.10;;;;;;;;;;5067852;28;20031;-62
2024/02/09 11:48:52;;;;;;;42.80;40.60;;;;;;;;;;5065034;28;20112;-62
2024/02/09 11:51:20;;;;;;;37.97;35.88;;;;;;;;;;5065301;28;20647;-62
2024/02/09 11:53:50;;;;;;;36.58;34.67;;;;;;;;;;5063116;28;20036;-62
2024/02/09 11:56:17;;;;;;;43.72;41.38;;;;;;;;;;5066192;28;20036;-62
2024/02/09 11:58:42;;;;;;;39.55;37.47;;;;;;;;;;5061280;28;20044;-61
2024/02/09 12:01:09;;;;;;;37.58;35.67;;;;;;;;;;5057613;28;20109;-62
2024/02/09 12:03:35;;;;;;;36.65;34.75;;;;;;;;;;5061532;28;20469;-62
2024/02/09 12:06:02;;;;;;;36.50;34.63;;;;;;;;;;5060116;28;20029;-61
2024/02/09 12:08:29;;;;;;;37.55;35.65;;;;;;;;;;5060937;28;20021;-62
2024/02/09 12:10:56;;;;;;;40.60;38.47;;;;;;;;;;5063369;28;20085;-62
2024/02/09 12:13:22;;;;;;;39.08;37.03;;;;;;;;;;5060026;28;20636;-52
2024/02/09 12:15:48;;;;;;;35.95;34.03;;;;;;;;;;5063103;28;20048;-51
2024/02/09 12:18:15;;;;;;;30.45;28.85;;;;;;;;;;5060159;28;20036;-49
2024/02/09 12:20:41;;;;;;;35.30;33.47;;;;;;;;;;5065479;28;20493;-51
2024/02/09 12:23:06;;;;;;;33.75;31.98;;;;;;;;;;5052105;28;20039;-49
2024/02/09 12:25:37;;;;;;;33.63;31.33;;;;;;;;;;5061774;28;20086;-51
2024/02/09 12:28:09;;;;;;;35.90;34.00;;;;;;;;;;5062919;28;20057;-51
2024/02/09 12:30:36;;;;;;;36.17;34.33;;;;;;;;;;5064265;28;20033;-53
2024/02/09 12:33:01;;;;;;;34.28;32.47;;;;;;;;;;5059812;28;20666;-52
2024/02/09 12:35:31;;;;;;;32.30;30.60;;;;;;;;;;5060612;28;20040;-52
2024/02/09 12:37:57;;;;;;;33.92;32.13;;;;;;;;;;5059215;28;20059;-61
2024/02/09 12:40:25;;;;;;;35.13;33.30;;;;;;;;;;5064434;28;20037;-63
2024/02/09 12:42:53;;;;;;;33.83;32.10;;;;;;;;;;5063481;28;20032;-63
2024/02/09 12:45:26;;;;;;;33.50;31.80;;;;;;;;;;5060334;28;20051;-61
2024/02/09 12:47:52;;;;;;;37.13;35.22;;;;;;;;;;5060583;28;20043;-62
2024/02/09 12:50:20;;;;;;;35.13;33.22;;;;;;;;;;5054070;28;20452;-62
2024/02/09 12:52:49;;;;;;;36.78;34.70;;;;;;;;;;5061060;28;20043;-63
2024/02/09 12:55:15;;;;;;;38.00;35.88;;;;;;;;;;5063377;28;20476;-63
2024/02/09 12:57:41;;;;;;;37.60;35.67;;;;;;;;;;5061608;28;20595;-63
2024/02/09 13:00:10;;;;;;;40.15;38.05;;;;;;;;;;5060142;28;20040;-62
2024/02/09 13:02:36;;;;;;;39.95;37.90;;;;;;;;;;5048185;28;20047;-63
2024/02/09 13:05:02;;;;;;;40.50;38.20;;;;;;;;;;5061355;28;20040;-62
2024/02/09 13:07:28;;;;;;;40.10;38.00;;;;;;;;;;5060230;28;20040;-62
2024/02/09 13:09:55;;;;;;;43.78;41.45;;;;;;;;;;5050116;28;20664;-63
2024/02/09 13:12:21;;;;;;;37.90;35.83;;;;;;;;;;5061314;28;20162;-62
2024/02/09 13:14:47;;;;;;;40.53;38.25;;;;;;;;;;5060295;28;20043;-62
2024/02/09 13:17:13;;;;;;;37.38;35.38;;;;;;;;;;5060797;28;20471;-62
2024/02/09 13:19:38;;;;;;;43.22;40.83;;;;;;;;;;5061024;28;20040;-62
2024/02/09 13:22:04;;;;;;;39.10;37.00;;;;;;;;;;5060759;28;20498;-62
2024/02/09 13:24:30;;;;;;;34.78;32.97;;;;;;;;;;5057861;28;20043;-62
2024/02/09 13:26:57;;;;;;;36.08;34.22;;;;;;;;;;5058059;28;20032;-62
2024/02/09 13:29:26;;;;;;;35.25;33.35;;;;;;;;;;5058590;28;20032;-63
2024/02/09 13:31:52;;;;;;;38.25;36.25;;;;;;;;;;5059246;28;20565;-63
2024/02/09 13:34:18;;;;;;;36.40;34.50;;;;;;;;;;5050110;28;20067;-63
2024/02/09 13:36:43;;;;;;;35.72;33.83;;;;;;;;;;5059648;28;20497;-63
2024/02/09 13:39:09;;;;;;;37.03;35.13;;;;;;;;;;5060477;28;20060;-63
2024/02/09 13:41:34;;;;;;;39.95;36.28;;;;;;;;;;5048606;28;20040;-63
2024/02/09 13:43:59;;;;;;;35.78;33.92;;;;;;;;;;5063333;28;20083;-63
2024/02/09 13:46:28;;;;;;;35.65;33.85;;;;;;;;;;5064004;28;20473;-63
2024/02/09 13:48:54;;;;;;;40.25;37.88;;;;;;;;;;5068742;28;20031;-65
2024/02/09 13:51:21;;;;;;;39.72;37.65;;;;;;;;;;5062210;28;20498;-64
2024/02/09 13:53:49;;;;;;;38.75;36.72;;;;;;;;;;5060903;28;20187;-64
2024/02/09 13:56:14;;;;;;;41.47;39.10;;;;;;;;;;5052791;28;20057;-63
2024/02/09 13:58:44;;;;;;;41.40;39.30;;;;;;;;;;5061847;28;20176;-64
2024/02/09 14:01:14;;;;;;;36.57;34.67;;;;;;;;;;5059163;28;20395;-63
2024/02/09 14:03:39;;;;;;;39.80;37.45;;;;;;;;;;5062467;28;20036;-63
2024/02/09 14:06:04;;;;;;;39.40;37.30;;;;;;;;;;5065799;28;20043;-63
2024/02/09 14:08:32;;;;;;;38.70;36.50;;;;;;;;;;5062658;28;20032;-63
2024/02/09 14:10:58;;;;;;;42.15;39.60;;;;;;;;;;5065406;28;20106;-62
2024/02/09 14:13:23;;;;;;;38.88;36.88;;;;;;;;;;5064820;28;20033;-61
2024/02/09 14:15:50;;;;;;;40.78;38.20;;;;;;;;;;5060666;28;20095;-60
2024/02/09 14:18:15;;;;;;;36.85;34.95;;;;;;;;;;5059053;28;20166;-64
2024/02/09 14:20:41;;;;;;;36.75;34.85;;;;;;;;;;5070865;28;20115;-63
2024/02/09 14:23:06;;;;;;;39.50;37.47;;;;;;;;;;5072363;28;20047;-64
2024/02/09 14:25:32;;;;;;;41.03;38.92;;;;;;;;;;5071717;28;20036;-63
2024/02/09 14:27:57;;;;;;;39.63;37.33;;;;;;;;;;5068858;28;20121;-63
2024/02/09 14:30:22;;;;;;;39.03;37.03;;;;;;;;;;5067565;28;20033;-64
2024/02/09 14:32:48;;;;;;;38.25;36.25;;;;;;;;;;5067912;28;20025;-63
2024/02/09 14:35:14;;;;;;;41.92;39.65;;;;;;;;;;5065551;28;20097;-63
2024/02/09 14:37:39;;;;;;;42.47;39.65;;;;;;;;;;5058562;28;20033;-64
2024/02/09 14:40:05;;;;;;;40.83;38.70;;;;;;;;;;5061288;28;20062;-63
2024/02/09 14:42:31;;;;;;;41.78;39.63;;;;;;;;;;5067692;28;20048;-62
2024/02/09 14:44:58;;;;;;;44.03;41.72;;;;;;;;;;5069144;28;20079;-60
2024/02/09 14:47:25;;;;;;;37.92;35.97;;;;;;;;;;5067464;28;20057;-61
2024/02/09 14:49:51;;;;;;;36.58;34.58;;;;;;;;;;5065535;28;20135;-62
2024/02/09 14:52:18;;;;;;;37.92;35.92;;;;;;;;;;5065443;28;20108;-61
2024/02/09 14:54:44;;;;;;;38.60;36.05;;;;;;;;;;5065960;28;20036;-61
2024/02/09 14:57:10;;;;;;;36.83;34.83;;;;;;;;;;5066631;28;20135;-62
2024/02/09 14:59:36;;;;;;;39.38;37.15;;;;;;;;;;5065219;28;21675;-63
2024/02/09 15:02:02;;;;;;;40.42;38.33;;;;;;;;;;5058839;28;20055;-62
2024/02/09 15:04:29;;;;;;;38.35;36.35;;;;;;;;;;5066852;28;20755;-63
2024/02/09 15:06:56;;;;;;;38.97;36.97;;;;;;;;;;5066768;28;20405;-62
2024/02/09 15:09:22;;;;;;;43.75;41.20;;;;;;;;;;5070096;28;20039;-62
2024/02/09 15:11:47;;;;;;;40.22;38.17;;;;;;;;;;5067268;28;20454;-63
2024/02/09 15:14:13;;;;;;;39.88;37.83;;;;;;;;;;5073717;28;20036;-63
2024/02/09 15:16:38;;;;;;;40.22;38.13;;;;;;;;;;5066706;28;20468;-63
2024/02/09 15:19:04;;;;;;;38.38;36.28;;;;;;;;;;5071919;28;20028;-63
2024/02/09 15:21:32;;;;;;;39.08;36.90;;;;;;;;;;5052604;28;20435;-63
2024/02/09 15:23:59;;;;;;;37.72;35.42;;;;;;;;;;5064780;28;20109;-62
2024/02/09 15:26:26;;;;;;;37.60;35.50;;;;;;;;;;5066618;28;20028;-63
2024/02/09 15:28:54;;;;;;;35.60;33.50;;;;;;;;;;5062714;28;20060;-62
2024/02/09 15:31:20;;;;;;;36.45;34.15;;;;;;;;;;5063792;28;20651;-63
2024/02/09 15:33:45;;;;;;;38.58;36.22;;;;;;;;;;5065840;28;20127;-63
2024/02/09 15:36:11;;;;;;;40.97;38.88;;;;;;;;;;5063880;28;20044;-64
2024/02/09 15:38:36;;;;;;;39.17;37.15;;;;;;;;;;5063960;28;20124;-63
2024/02/09 15:41:02;;;;;;;37.38;35.20;;;;;;;;;;5063295;28;20122;-63
2024/02/09 15:43:28;;;;;;;36.03;34.05;;;;;;;;;;5049691;28;20032;-63
2024/02/09 15:45:55;;;;;;;36.10;34.20;;;;;;;;;;5066819;28;20038;-61
2024/02/09 15:48:20;;;;;;;38.33;36.33;;;;;;;;;;5064003;28;20102;-62
2024/02/09 15:50:46;;;;;;;37.63;35.63;;;;;;;;;;5066782;28;20044;-61
2024/02/09 15:53:11;;;;;;;36.97;34.92;;;;;;;;;;5063752;28;20070;-62
2024/02/09 15:55:38;;;;;;;37.10;35.10;;;;;;;;;;5065552;28;20029;-63
2024/02/09 15:58:04;;;;;;;36.92;34.97;;;;;;;;;;5065905;28;20344;-63
2024/02/09 16:00:30;;;;;;;38.42;36.33;;;;;;;;;;5063937;28;20036;-63
2024/02/09 16:02:56;;;;;;;39.00;36.65;;;;;;;;;;5063070;28;20153;-62